Time;durP1;ratioP1;P1;durP2;ratioP2;P2;SDS_P1;SDS_P2;PMS_P1;PMS_P2;Temp;Humidity;BMP_temperature;BMP_pressure;BME280_temperature;BME280_humidity;BME280_pressure;Samples;Min_cycle;Max_cycle;Signal;HPM_P1;HPM_P2
2022/07/20 00:02:36;;;;;;;9.90;6.00;;;25.90;56.50;;;;;;7029388;28;20468;-79
2022/07/20 00:05:59;;;;;;;9.67;5.90;;;25.90;56.70;;;;;;7028247;28;20858;-78
2022/07/20 00:13:01;;;;;;;11.07;6.05;;;25.70;57.20;;;;;;7055176;28;20420;-79
2022/07/20 00:16:26;;;;;;;9.23;5.80;;;25.50;55.90;;;;;;7028429;28;20931;-79
2022/07/20 00:19:48;;;;;;;12.02;5.72;;;25.50;58.80;;;;;;7025678;28;20429;-77
2022/07/20 00:23:10;;;;;;;10.23;6.03;;;25.40;57.40;;;;;;7010232;28;20468;-79
2022/07/20 00:26:32;;;;;;;11.25;5.57;;;25.40;58.30;;;;;;7027642;28;20432;-80
2022/07/20 00:29:56;;;;;;;9.75;5.95;;;25.40;58.40;;;;;;7044840;28;20428;-80
2022/07/20 00:33:18;;;;;;;11.17;6.33;;;25.40;57.80;;;;;;7055791;28;20769;-79
2022/07/20 00:36:40;;;;;;;9.60;5.70;;;25.30;56.60;;;;;;7048701;28;20441;-80
2022/07/20 00:40:04;;;;;;;10.30;5.90;;;25.30;58.30;;;;;;7027487;28;20432;-80
2022/07/20 00:43:26;;;;;;;10.13;5.90;;;25.20;58.00;;;;;;7026966;28;20434;-77
2022/07/20 00:46:50;;;;;;;10.15;5.60;;;25.00;57.80;;;;;;7049587;28;20441;-82
2022/07/20 00:50:12;;;;;;;10.38;5.80;;;25.00;57.80;;;;;;7055195;28;20537;-78
2022/07/20 00:53:34;;;;;;;9.85;6.00;;;25.00;59.20;;;;;;7054992;28;20435;-79
2022/07/20 00:56:57;;;;;;;10.00;5.45;;;25.00;58.30;;;;;;7026906;28;20442;-79
2022/07/20 01:00:19;;;;;;;8.10;5.53;;;25.00;58.70;;;;;;7037666;28;20464;-78
2022/07/20 01:03:43;;;;;;;10.45;5.88;;;25.00;59.80;;;;;;7038381;28;20928;-79
2022/07/20 01:07:05;;;;;;;9.57;6.00;;;24.90;59.60;;;;;;7033736;28;20429;-80
2022/07/20 01:10:27;;;;;;;10.20;5.80;;;24.80;60.50;;;;;;7009450;28;20781;-78
2022/07/20 01:13:50;;;;;;;9.98;5.90;;;24.60;58.80;;;;;;7016685;28;20441;-79
2022/07/20 01:17:12;;;;;;;9.87;5.83;;;24.50;60.80;;;;;;7030538;28;20437;-80
2022/07/20 01:20:37;;;;;;;10.03;5.87;;;24.10;59.60;;;;;;7026127;28;20422;-78
2022/07/20 01:24:01;;;;;;;8.93;5.40;;;24.20;59.80;;;;;;7026430;28;20921;-80
2022/07/20 01:27:22;;;;;;;9.82;5.88;;;24.20;59.40;;;;;;7025915;28;20433;-78
2022/07/20 01:30:44;;;;;;;11.15;5.50;;;24.10;59.80;;;;;;7018787;28;20473;-81
2022/07/20 01:34:07;;;;;;;8.25;5.22;;;24.00;60.60;;;;;;7014540;28;20427;-79
2022/07/20 01:37:29;;;;;;;12.02;5.90;;;24.10;61.20;;;;;;6997483;28;20442;-77
2022/07/20 01:40:53;;;;;;;11.38;6.07;;;24.20;61.30;;;;;;7028071;28;20420;-78
2022/07/20 01:44:15;;;;;;;9.85;5.95;;;24.20;61.70;;;;;;7037897;28;20430;-78
2022/07/20 01:47:37;;;;;;;10.35;6.28;;;24.20;61.40;;;;;;7036627;28;20976;-77
2022/07/20 01:50:59;;;;;;;8.38;5.70;;;24.30;61.90;;;;;;7024955;28;20757;-79
2022/07/20 01:54:21;;;;;;;8.65;5.63;;;24.20;62.30;;;;;;7025168;28;20429;-77
2022/07/20 01:57:45;;;;;;;9.63;5.63;;;24.30;63.20;;;;;;7026073;28;20923;-77
2022/07/20 02:01:07;;;;;;;9.40;5.60;;;24.20;62.80;;;;;;7030984;28;20430;-78
2022/07/20 02:04:29;;;;;;;9.02;5.68;;;24.20;62.80;;;;;;7053146;28;20427;-78
2022/07/20 02:07:51;;;;;;;9.07;5.70;;;24.00;63.30;;;;;;7046743;28;20435;-78
2022/07/20 02:11:13;;;;;;;8.63;5.90;;;23.90;63.80;;;;;;7045597;28;20438;-77
2022/07/20 02:14:36;;;;;;;10.82;6.22;;;23.80;63.80;;;;;;6996881;28;20902;-78
2022/07/20 02:17:58;;;;;;;9.48;6.00;;;23.80;63.20;;;;;;7017783;28;20438;-78
2022/07/20 02:21:22;;;;;;;9.27;5.90;;;23.70;63.80;;;;;;7024700;28;20775;-79
2022/07/20 02:24:44;;;;;;;9.07;6.20;;;23.60;64.10;;;;;;7024767;28;20422;-79
2022/07/20 02:28:07;;;;;;;10.18;5.70;;;23.40;63.20;;;;;;7002434;28;20431;-80
2022/07/20 02:31:30;;;;;;;9.50;5.70;;;23.50;64.30;;;;;;7017741;28;20775;-78
2022/07/20 02:34:52;;;;;;;8.63;5.80;;;23.30;65.30;;;;;;7030149;28;20429;-78
2022/07/20 02:38:15;;;;;;;9.32;5.90;;;23.00;66.10;;;;;;7021113;28;20449;-79
2022/07/20 02:41:37;;;;;;;9.57;6.20;;;23.10;66.00;;;;;;6998856;28;20470;-77
2022/07/20 02:44:59;;;;;;;11.32;6.22;;;23.00;65.60;;;;;;7052358;28;20435;-79
2022/07/20 02:48:22;;;;;;;9.40;6.40;;;23.10;64.80;;;;;;7030594;28;20793;-78
2022/07/20 02:51:44;;;;;;;9.43;6.05;;;23.00;64.80;;;;;;7025227;28;20730;-77
2022/07/20 02:55:07;;;;;;;8.77;6.25;;;23.00;65.00;;;;;;7053513;28;20885;-77
2022/07/20 02:58:29;;;;;;;8.85;5.63;;;23.00;65.10;;;;;;7051083;28;20428;-77
2022/07/20 03:01:52;;;;;;;8.13;5.80;;;23.00;66.80;;;;;;7049144;28;20424;-77
2022/07/20 03:05:15;;;;;;;9.05;5.68;;;23.00;67.30;;;;;;7026264;28;20460;-79
2022/07/20 03:08:38;;;;;;;8.68;5.40;;;22.80;68.00;;;;;;7023094;28;20900;-79
2022/07/20 03:12:00;;;;;;;7.90;5.40;;;22.80;68.40;;;;;;7051538;28;20506;-79
2022/07/20 03:15:22;;;;;;;7.75;5.35;;;22.70;68.70;;;;;;7056023;28;20779;-80
2022/07/20 03:18:44;;;;;;;7.50;5.20;;;22.60;69.20;;;;;;7028973;28;20431;-79
2022/07/20 03:22:07;;;;;;;8.57;5.47;;;22.40;69.70;;;;;;7037934;28;20428;-78
2022/07/20 03:25:30;;;;;;;9.10;5.97;;;22.20;70.40;;;;;;7024228;28;20457;-79
2022/07/20 03:28:52;;;;;;;9.10;5.53;;;22.30;70.30;;;;;;7019903;28;20950;-78
2022/07/20 03:32:14;;;;;;;7.72;5.57;;;22.40;70.50;;;;;;7039799;28;20431;-78
2022/07/20 03:35:36;;;;;;;8.43;5.72;;;22.40;70.40;;;;;;7024475;28;20935;-77
2022/07/20 03:38:59;;;;;;;9.20;5.93;;;22.50;70.00;;;;;;7019500;28;20441;-78
2022/07/20 03:42:21;;;;;;;10.35;6.13;;;22.50;70.60;;;;;;7020037;28;20420;-79
2022/07/20 03:45:43;;;;;;;10.43;6.03;;;22.50;70.40;;;;;;7050121;28;20470;-78
2022/07/20 03:49:05;;;;;;;7.82;5.75;;;22.40;70.60;;;;;;7038402;28;20556;-77
2022/07/20 03:52:27;;;;;;;8.50;6.00;;;22.30;71.20;;;;;;7051176;28;20422;-77
2022/07/20 03:55:51;;;;;;;8.38;5.50;;;22.30;71.20;;;;;;7050910;28;20459;-77
2022/07/20 03:59:13;;;;;;;9.63;5.45;;;22.30;71.20;;;;;;7050857;28;20420;-78
2022/07/20 04:02:36;;;;;;;8.85;5.68;;;22.20;71.60;;;;;;7044515;28;20939;-78
2022/07/20 04:05:58;;;;;;;8.68;5.45;;;22.10;72.10;;;;;;7022821;28;20429;-78
2022/07/20 04:09:43;;;;;;;8.82;5.72;;;22.10;72.30;;;;;;7022826;28;20433;-78
2022/07/20 04:13:05;;;;;;;9.70;5.50;;;22.00;72.90;;;;;;7021954;28;20422;-78
2022/07/20 04:16:27;;;;;;;7.72;5.80;;;22.10;73.00;;;;;;7027634;28;20487;-77
2022/07/20 04:19:51;;;;;;;9.70;5.85;;;21.80;73.40;;;;;;7020832;28;20888;-80
2022/07/20 04:23:13;;;;;;;9.77;5.80;;;21.50;74.30;;;;;;7028090;28;20421;-78
2022/07/20 04:26:35;;;;;;;9.10;5.90;;;21.40;75.00;;;;;;7027684;28;20432;-78
2022/07/20 04:29:58;;;;;;;11.30;6.53;;;21.40;76.00;;;;;;7027436;28;20425;-77
2022/07/20 04:33:20;;;;;;;8.25;5.97;;;21.40;75.90;;;;;;7011534;28;20797;-77
2022/07/20 04:36:42;;;;;;;9.65;5.63;;;21.40;75.30;;;;;;6999593;28;20864;-78
2022/07/20 04:40:06;;;;;;;8.38;5.65;;;21.40;76.70;;;;;;6999485;28;20948;-78
2022/07/20 04:43:28;;;;;;;9.07;6.22;;;21.50;76.20;;;;;;6999238;28;20869;-78
2022/07/20 04:46:52;;;;;;;10.80;6.28;;;21.60;74.90;;;;;;6998343;28;20955;-79
2022/07/20 04:50:14;;;;;;;9.05;6.20;;;21.60;74.60;;;;;;6999403;28;20435;-78
2022/07/20 04:53:36;;;;;;;10.52;6.20;;;21.50;75.90;;;;;;6998801;28;20427;-77
2022/07/20 04:56:59;;;;;;;9.75;6.10;;;21.40;76.30;;;;;;6998716;28;20485;-77
2022/07/20 05:00:21;;;;;;;9.57;6.00;;;21.40;76.50;;;;;;7000116;28;20423;-77
2022/07/20 05:03:44;;;;;;;9.73;5.95;;;21.50;76.80;;;;;;7025695;28;20484;-80
2022/07/20 05:07:06;;;;;;;10.90;6.30;;;21.70;77.00;;;;;;7020802;28;20459;-78
2022/07/20 05:10:28;;;;;;;9.65;6.60;;;21.80;77.40;;;;;;6998685;28;20431;-79
2022/07/20 05:13:50;;;;;;;11.38;6.43;;;21.90;78.10;;;;;;6998361;28;20490;-77
2022/07/20 05:17:12;;;;;;;9.25;6.15;;;21.90;78.40;;;;;;6998733;28;20475;-77
2022/07/20 05:20:36;;;;;;;12.23;6.90;;;22.00;78.70;;;;;;6997511;28;20467;-79
2022/07/20 05:23:58;;;;;;;11.53;6.70;;;22.00;78.30;;;;;;6998375;28;20446;-78
2022/07/20 05:27:20;;;;;;;9.00;6.35;;;21.90;79.30;;;;;;6996833;28;20429;-78
2022/07/20 05:30:42;;;;;;;9.57;6.80;;;21.90;79.70;;;;;;6998222;28;20478;-77
2022/07/20 05:34:04;;;;;;;10.52;6.80;;;21.70;80.10;;;;;;7007660;28;20458;-77
2022/07/20 05:37:28;;;;;;;9.20;6.50;;;21.60;81.00;;;;;;7017207;28;20441;-78
2022/07/20 05:40:50;;;;;;;11.55;6.40;;;21.60;81.50;;;;;;7025982;28;20498;-73
2022/07/20 05:44:12;;;;;;;11.07;7.10;;;21.80;81.60;;;;;;7024949;28;20837;-75
2022/07/20 05:47:34;;;;;;;9.53;6.60;;;21.80;81.20;;;;;;7025598;28;20459;-73
2022/07/20 05:50:56;;;;;;;9.60;6.50;;;21.90;79.60;;;;;;7015761;28;20466;-73
2022/07/20 05:54:19;;;;;;;9.68;6.35;;;22.00;78.40;;;;;;6997356;28;20517;-73
2022/07/20 05:57:41;;;;;;;9.55;6.47;;;21.70;80.20;;;;;;7022587;28;20476;-71
2022/07/20 06:01:03;;;;;;;9.63;6.45;;;22.00;81.50;;;;;;7025430;28;20928;-72
2022/07/20 06:04:25;;;;;;;10.75;6.10;;;22.20;81.50;;;;;;7024943;28;20426;-74
2022/07/20 06:07:47;;;;;;;10.65;6.53;;;22.20;80.90;;;;;;7009747;28;20491;-72
2022/07/20 06:11:11;;;;;;;10.10;6.30;;;21.80;81.70;;;;;;6995855;28;20499;-72
2022/07/20 06:14:33;;;;;;;9.45;6.40;;;21.90;81.70;;;;;;7006596;28;20457;-72
2022/07/20 06:17:56;;;;;;;9.88;6.85;;;21.90;82.00;;;;;;7026961;28;20510;-73
2022/07/20 06:21:19;;;;;;;10.60;6.40;;;22.20;82.10;;;;;;7029140;28;20941;-74
2022/07/20 06:24:41;;;;;;;9.35;6.05;;;22.40;81.50;;;;;;7028531;28;20466;-73
2022/07/20 06:28:05;;;;;;;11.35;6.40;;;22.60;80.20;;;;;;7027864;28;20761;-73
2022/07/20 06:31:28;;;;;;;11.40;6.30;;;22.60;80.60;;;;;;7024018;28;20475;-71
2022/07/20 06:34:50;;;;;;;12.50;6.30;;;22.50;81.50;;;;;;7023255;28;20958;-73
2022/07/20 06:38:12;;;;;;;10.82;6.13;;;22.50;81.90;;;;;;7022617;28;20911;-73
2022/07/20 06:41:34;;;;;;;11.20;6.43;;;22.70;82.00;;;;;;7024107;28;20465;-72
2022/07/20 06:44:57;;;;;;;10.98;6.45;;;22.80;82.70;;;;;;7018184;28;20545;-73
2022/07/20 06:48:19;;;;;;;11.63;6.35;;;23.00;81.20;;;;;;6992872;28;20424;-73
2022/07/20 06:51:41;;;;;;;10.80;5.93;;;23.10;80.60;;;;;;6993180;28;20457;-73
2022/07/20 06:55:04;;;;;;;10.68;6.05;;;23.20;80.30;;;;;;6992609;28;20528;-72
2022/07/20 06:58:26;;;;;;;9.85;5.95;;;23.40;78.90;;;;;;6995878;28;20671;-72
2022/07/20 07:01:50;;;;;;;10.95;6.07;;;23.40;76.50;;;;;;7020610;28;20465;-73
2022/07/20 07:05:12;;;;;;;10.10;6.07;;;23.60;75.90;;;;;;6999841;28;20827;-73
2022/07/20 07:08:34;;;;;;;8.88;5.75;;;23.70;75.40;;;;;;6997513;28;20862;-73
2022/07/20 07:11:56;;;;;;;10.18;6.07;;;23.80;75.70;;;;;;7020375;28;20903;-73
2022/07/20 07:15:18;;;;;;;11.07;5.73;;;24.00;75.00;;;;;;7019025;28;20433;-73
2022/07/20 07:18:42;;;;;;;9.73;6.10;;;24.00;75.10;;;;;;7019672;28;20479;-73
2022/07/20 07:22:05;;;;;;;10.20;6.03;;;24.10;74.60;;;;;;7019958;28;20483;-73
2022/07/20 07:25:27;;;;;;;8.40;5.70;;;24.20;74.50;;;;;;7020077;28;20422;-73
2022/07/20 07:28:50;;;;;;;9.35;5.90;;;24.30;74.50;;;;;;7020607;28;20426;-73
2022/07/20 07:32:12;;;;;;;10.18;5.57;;;24.40;74.00;;;;;;7015590;28;20803;-72
2022/07/20 07:35:36;;;;;;;8.38;5.50;;;24.50;73.60;;;;;;7017736;28;20488;-73
2022/07/20 07:38:58;;;;;;;8.65;5.78;;;24.60;73.50;;;;;;7020154;28;20500;-72
2022/07/20 07:42:22;;;;;;;10.10;5.90;;;24.70;72.80;;;;;;7019733;28;20461;-73
2022/07/20 07:45:44;;;;;;;9.48;6.10;;;24.80;72.50;;;;;;7017383;28;20764;-72
2022/07/20 07:49:06;;;;;;;9.77;5.85;;;24.80;72.40;;;;;;7021199;28;20521;-72
2022/07/20 07:52:30;;;;;;;10.38;5.85;;;24.90;72.30;;;;;;7014223;28;20518;-72
2022/07/20 07:55:52;;;;;;;9.10;5.47;;;25.00;71.80;;;;;;6999363;28;20505;-73
2022/07/20 07:59:14;;;;;;;9.93;5.30;;;25.10;71.70;;;;;;7008850;28;20441;-76
2022/07/20 08:02:37;;;;;;;10.70;5.57;;;25.00;71.10;;;;;;7025710;28;20518;-76
2022/07/20 08:05:59;;;;;;;8.10;5.20;;;25.00;73.50;;;;;;7025048;28;20870;-78
2022/07/20 08:09:22;;;;;;;10.18;5.47;;;25.10;73.40;;;;;;6996406;28;20467;-79
2022/07/20 08:12:45;;;;;;;9.38;5.90;;;25.20;73.20;;;;;;6997369;28;20466;-79
2022/07/20 08:16:08;;;;;;;9.70;5.50;;;25.30;73.30;;;;;;7048467;28;21031;-79
2022/07/20 08:19:30;;;;;;;8.48;5.57;;;25.30;73.40;;;;;;7035339;28;20475;-79
2022/07/20 08:22:53;;;;;;;10.30;5.72;;;25.40;73.60;;;;;;7025393;28;20923;-81
2022/07/20 08:26:16;;;;;;;10.30;6.30;;;25.40;73.50;;;;;;7026568;28;20426;-79
2022/07/20 08:29:38;;;;;;;9.75;5.95;;;25.50;72.90;;;;;;7024331;28;20524;-78
2022/07/20 08:33:00;;;;;;;9.50;5.90;;;25.50;73.40;;;;;;7024574;28;20426;-81
2022/07/20 08:36:22;;;;;;;12.07;6.27;;;25.60;72.40;;;;;;7024719;28;20434;-81
2022/07/20 08:39:45;;;;;;;11.98;6.25;;;25.70;72.10;;;;;;7024963;28;20876;-79
2022/07/20 08:43:08;;;;;;;9.95;6.07;;;25.90;71.80;;;;;;7021586;28;20508;-80
2022/07/20 08:46:31;;;;;;;11.63;6.28;;;26.00;71.70;;;;;;7023691;28;20425;-79
2022/07/20 08:49:53;;;;;;;9.27;5.57;;;26.10;71.80;;;;;;7024217;28;20433;-80
2022/07/20 08:53:15;;;;;;;9.55;5.82;;;26.30;72.50;;;;;;7025195;28;20495;-80
2022/07/20 08:56:37;;;;;;;10.40;5.80;;;26.40;72.10;;;;;;7023719;28;20871;-80
2022/07/20 09:00:02;;;;;;;10.25;5.55;;;26.60;71.30;;;;;;7023375;28;20844;-79
2022/07/20 09:03:24;;;;;;;9.02;5.60;;;26.80;69.40;;;;;;7023906;28;20456;-81
2022/07/20 09:06:48;;;;;;;9.48;5.18;;;27.00;65.70;;;;;;7023336;28;20453;-80
2022/07/20 09:10:13;;;;;;;10.55;5.45;;;27.20;65.00;;;;;;7025395;28;20426;-80
2022/07/20 09:13:36;;;;;;;10.93;5.45;;;27.30;64.40;;;;;;7022365;28;20433;-81
2022/07/20 09:16:59;;;;;;;8.48;5.40;;;27.50;64.80;;;;;;7023501;28;20795;-79
2022/07/20 09:20:21;;;;;;;11.03;5.33;;;27.50;62.10;;;;;;7022988;28;20524;-80
2022/07/20 09:23:52;;;;;;;11.48;5.35;;;27.80;62.90;;;;;;7024610;28;20474;-80
2022/07/20 09:27:14;;;;;;;9.93;5.40;;;27.90;62.60;;;;;;7022980;28;20490;-79
2022/07/20 09:30:38;;;;;;;8.77;5.28;;;27.90;61.90;;;;;;7022649;28;20603;-81
2022/07/20 09:34:04;;;;;;;8.73;5.45;;;28.10;61.30;;;;;;7022223;28;20433;-80
2022/07/20 09:37:31;;;;;;;9.40;5.32;;;28.20;60.70;;;;;;7016844;28;20441;-80
2022/07/20 09:40:53;;;;;;;10.70;5.40;;;28.40;61.00;;;;;;7022598;28;21024;-79
2022/07/20 09:44:23;;;;;;;9.73;5.40;;;28.50;60.60;;;;;;7020656;28;20430;-81
2022/07/20 09:48:09;;;;;;;8.35;5.00;;;28.70;60.30;;;;;;7022376;28;20437;-80
2022/07/20 09:51:36;;;;;;;8.70;5.10;;;28.80;59.00;;;;;;7024390;28;20434;-80
2022/07/20 09:54:58;;;;;;;7.78;5.30;;;28.70;59.20;;;;;;7020800;28;20468;-81
2022/07/20 09:58:25;;;;;;;9.13;5.22;;;28.70;59.40;;;;;;7022308;28;20933;-81
2022/07/20 10:01:50;;;;;;;10.17;4.93;;;28.80;57.80;;;;;;7019822;28;20465;-80
2022/07/20 10:05:14;;;;;;;8.25;5.00;;;29.10;57.00;;;;;;7022468;28;20422;-80
2022/07/20 10:08:37;;;;;;;8.15;4.57;;;29.20;55.70;;;;;;7022151;28;20430;-80
2022/07/20 10:12:00;;;;;;;7.35;4.50;;;29.20;55.40;;;;;;7022510;28;20926;-81
2022/07/20 10:15:32;;;;;;;8.88;4.72;;;29.20;55.00;;;;;;7022865;28;20441;-80
2022/07/20 10:18:56;;;;;;;9.20;4.88;;;29.40;54.90;;;;;;7021403;28;20983;-80
2022/07/20 10:22:18;;;;;;;9.90;4.82;;;29.40;54.00;;;;;;7021677;28;20917;-81
2022/07/20 10:25:42;;;;;;;8.20;5.10;;;29.50;53.90;;;;;;7022102;28;20919;-83
2022/07/20 10:29:04;;;;;;;9.93;4.60;;;29.70;54.10;;;;;;7034735;28;20463;-81
2022/07/20 10:32:29;;;;;;;7.40;4.90;;;29.70;53.90;;;;;;7048940;28;20884;-81
2022/07/20 10:36:41;;;;;;;7.15;4.80;;;29.60;54.30;;;;;;7049620;28;20916;-81
2022/07/20 10:39:46;;;;;;;8.57;5.05;;;29.60;53.60;;;;;;7048983;28;20432;-81
2022/07/20 10:43:17;;;;;;;10.60;5.10;;;29.80;54.30;;;;;;7032071;28;20497;-80
2022/07/20 10:46:39;;;;;;;8.73;5.22;;;29.90;54.20;;;;;;7020101;28;20465;-81
2022/07/20 10:50:04;;;;;;;9.02;5.15;;;30.10;53.90;;;;;;7020026;28;20440;-82
2022/07/20 10:53:36;;;;;;;10.35;5.28;;;30.10;53.60;;;;;;7020373;28;20460;-82
2022/07/20 10:56:59;;;;;;;9.55;5.10;;;30.20;53.90;;;;;;7020161;28;20456;-80
2022/07/20 11:00:29;;;;;;;10.70;5.88;;;30.30;53.40;;;;;;7022725;28;20465;-81
2022/07/20 11:03:52;;;;;;;10.32;5.22;;;30.40;53.80;;;;;;7031283;28;20473;-83
2022/07/20 11:07:32;;;;;;;9.70;5.30;;;30.50;54.80;;;;;;7023692;28;20464;-81
2022/07/20 11:10:56;;;;;;;8.18;4.70;;;30.50;54.70;;;;;;7022154;28;20425;-82
2022/07/20 11:14:18;;;;;;;9.38;5.10;;;30.60;55.10;;;;;;7023513;28;20896;-82
2022/07/20 11:17:42;;;;;;;9.68;5.00;;;30.70;54.70;;;;;;7019630;28;20441;-81
2022/07/20 11:21:08;;;;;;;8.43;5.47;;;30.90;54.60;;;;;;7019695;28;20487;-83
2022/07/20 11:24:31;;;;;;;12.90;5.13;;;30.80;54.60;;;;;;7022686;28;20440;-81
2022/07/20 11:28:00;;;;;;;8.77;5.07;;;31.00;53.40;;;;;;7025738;28;20472;-81
2022/07/20 11:31:26;;;;;;;9.33;6.00;;;31.00;53.80;;;;;;7025705;28;20464;-80
2022/07/20 11:34:53;;;;;;;12.05;6.93;;;31.10;53.90;;;;;;7026396;28;20472;-82
2022/07/20 11:38:16;;;;;;;15.13;10.30;;;31.30;53.90;;;;;;7025440;28;20442;-81
2022/07/20 11:41:41;;;;;;;8.00;5.10;;;31.40;53.00;;;;;;7029264;28;20793;-81
2022/07/20 11:45:05;;;;;;;9.85;4.97;;;31.60;52.00;;;;;;7022546;28;20425;-81
2022/07/20 11:48:27;;;;;;;8.88;5.05;;;31.70;52.00;;;;;;7025227;28;20817;-80
2022/07/20 11:51:55;;;;;;;8.85;4.97;;;31.80;51.70;;;;;;7025692;28;20775;-82
2022/07/20 11:55:17;;;;;;;10.82;5.10;;;31.90;50.90;;;;;;7025147;28;20430;-80
2022/07/20 11:58:40;;;;;;;10.10;5.13;;;32.00;50.60;;;;;;7025195;28;20480;-81
2022/07/20 12:02:04;;;;;;;8.68;5.15;;;32.20;51.30;;;;;;6999376;28;20488;-82
2022/07/20 12:05:27;;;;;;;10.82;5.78;;;32.30;51.70;;;;;;7002065;28;20422;-83
2022/07/20 12:09:06;;;;;;;9.80;5.32;;;32.50;51.50;;;;;;6998494;28;20893;-81
2022/07/20 12:12:47;;;;;;;9.38;5.60;;;32.50;48.80;;;;;;7014273;28;20833;-82
2022/07/20 12:16:09;;;;;;;10.90;5.32;;;32.60;49.20;;;;;;7025036;28;20434;-81
2022/07/20 12:19:31;;;;;;;11.40;5.35;;;32.60;49.20;;;;;;7022792;28;20484;-82
2022/07/20 12:22:56;;;;;;;8.05;4.88;;;32.70;49.80;;;;;;7010390;28;20787;-81
2022/07/20 12:26:27;;;;;;;9.63;5.32;;;33.00;48.60;;;;;;7023661;28;20933;-83
2022/07/20 12:29:49;;;;;;;10.53;5.20;;;33.20;49.10;;;;;;7024362;28;20437;-81
2022/07/20 12:33:14;;;;;;;9.68;5.20;;;33.30;47.90;;;;;;7024607;28;20942;-81
2022/07/20 12:36:39;;;;;;;10.68;5.03;;;33.30;48.00;;;;;;7005687;28;20430;-81
2022/07/20 12:40:01;;;;;;;11.45;4.90;;;33.60;47.70;;;;;;7016975;28;20443;-82
2022/07/20 12:43:34;;;;;;;9.55;5.20;;;33.90;48.00;;;;;;6997336;28;20459;-81
2022/07/20 12:46:59;;;;;;;7.20;4.63;;;34.10;47.30;;;;;;7000558;28;20427;-81
2022/07/20 12:50:22;;;;;;;10.45;4.88;;;34.20;46.40;;;;;;6996842;28;20532;-82
2022/07/20 12:53:48;;;;;;;9.13;4.80;;;34.00;45.70;;;;;;7027017;28;20429;-81
2022/07/20 12:57:10;;;;;;;9.73;4.85;;;33.60;44.70;;;;;;7023552;28;20864;-81
2022/07/20 13:00:33;;;;;;;9.40;4.80;;;33.40;44.70;;;;;;7024338;28;20442;-82
2022/07/20 13:03:55;;;;;;;9.43;4.60;;;33.20;45.20;;;;;;7026040;28;20844;-82
2022/07/20 13:07:17;;;;;;;10.15;4.60;;;33.10;44.90;;;;;;7023139;28;20457;-80
2022/07/20 13:10:40;;;;;;;9.37;4.70;;;32.90;44.70;;;;;;7024632;28;20465;-81
2022/07/20 13:14:02;;;;;;;8.43;4.25;;;32.80;45.00;;;;;;7024284;28;20437;-81
2022/07/20 13:17:25;;;;;;;6.70;4.60;;;32.70;44.90;;;;;;7024121;28;20433;-82
2022/07/20 13:20:47;;;;;;;9.90;5.00;;;32.60;45.80;;;;;;7023010;28;20799;-80
2022/07/20 13:24:10;;;;;;;8.97;4.73;;;32.50;46.70;;;;;;7041116;28;20477;-80
2022/07/20 13:27:32;;;;;;;11.63;5.45;;;32.40;47.90;;;;;;7051436;28;20440;-78
2022/07/20 13:30:54;;;;;;;14.15;8.18;;;32.10;52.30;;;;;;7050013;28;20979;-77
2022/07/20 13:34:17;;;;;;;18.75;9.45;;;31.70;56.80;;;;;;7025720;28;20437;-78
2022/07/20 13:37:41;;;;;;;16.95;9.35;;;31.40;59.20;;;;;;7029722;28;20429;-77
2022/07/20 13:41:04;;;;;;;14.57;10.30;;;30.70;62.20;;;;;;7035952;28;20721;-80
2022/07/20 13:44:26;;;;;;;16.25;11.20;;;30.10;66.10;;;;;;7061585;28;20427;-76
2022/07/20 13:47:48;;;;;;;16.00;11.60;;;29.70;67.30;;;;;;7059685;28;20430;-79
2022/07/20 13:51:12;;;;;;;16.95;12.70;;;29.60;68.90;;;;;;7047179;28;20430;-77
2022/07/20 13:54:34;;;;;;;17.05;12.77;;;29.40;70.40;;;;;;7029306;28;20433;-79
2022/07/20 13:57:56;;;;;;;18.00;12.93;;;29.40;70.80;;;;;;7025687;28;20915;-78
2022/07/20 14:01:18;;;;;;;18.80;13.38;;;29.50;72.40;;;;;;7025767;28;20476;-76
2022/07/20 14:04:40;;;;;;;18.23;12.77;;;29.50;72.90;;;;;;7033867;28;20429;-77
2022/07/20 14:08:04;;;;;;;21.52;13.45;;;29.60;72.70;;;;;;7033130;28;20440;-76
2022/07/20 14:11:26;;;;;;;17.80;13.43;;;29.70;73.00;;;;;;7030638;28;20433;-77
2022/07/20 14:14:48;;;;;;;19.93;13.43;;;29.70;72.90;;;;;;7029939;28;20437;-79
2022/07/20 14:18:10;;;;;;;20.33;14.45;;;29.80;73.40;;;;;;7029616;28;20437;-77
2022/07/20 14:21:33;;;;;;;18.02;14.10;;;29.80;73.50;;;;;;7045471;28;20795;-78
2022/07/20 14:24:56;;;;;;;19.45;13.63;;;29.80;73.40;;;;;;7037647;28;20453;-79
2022/07/20 14:28:18;;;;;;;19.65;13.82;;;29.90;73.70;;;;;;7030969;28;20466;-76
2022/07/20 14:31:41;;;;;;;16.58;13.25;;;29.90;73.80;;;;;;7013338;28;20467;-77
2022/07/20 14:35:04;;;;;;;17.77;13.00;;;29.70;74.30;;;;;;6997014;28;20430;-78
2022/07/20 14:38:27;;;;;;;23.02;15.80;;;29.60;76.30;;;;;;7020897;28;20438;-77
2022/07/20 14:41:51;;;;;;;20.25;13.52;;;29.20;82.20;;;;;;7011339;28;20462;-79
2022/07/20 14:45:13;;;;;;;20.85;16.48;;;29.00;79.30;;;;;;6990877;28;20428;-80
2022/07/20 14:48:36;;;;;;;24.13;16.75;;;28.80;86.30;;;;;;7020792;28;20429;-79
2022/07/20 14:51:59;;;;;;;22.33;15.80;;;28.80;89.80;;;;;;7013376;28;20439;-77
2022/07/20 14:55:22;;;;;;;21.50;15.70;;;28.80;91.60;;;;;;6992540;28;20463;-80
2022/07/20 14:58:46;;;;;;;19.05;14.98;;;28.90;90.70;;;;;;6997676;28;20978;-77
2022/07/20 15:02:09;;;;;;;18.73;15.30;;;29.20;88.90;;;;;;6994650;28;20438;-79
2022/07/20 15:05:31;;;;;;;18.92;14.88;;;29.30;88.00;;;;;;6991864;28;20448;-78
2022/07/20 15:08:53;;;;;;;19.17;15.13;;;29.30;89.70;;;;;;7004159;28;20430;-77
2022/07/20 15:12:15;;;;;;;17.08;14.63;;;29.80;90.50;;;;;;7013059;28;20476;-78
2022/07/20 15:15:38;;;;;;;18.83;14.95;;;30.10;88.30;;;;;;7018972;28;20838;-79
2022/07/20 15:19:01;;;;;;;18.10;15.07;;;30.40;88.80;;;;;;7010603;28;20797;-77
2022/07/20 15:22:23;;;;;;;17.40;14.43;;;30.70;86.50;;;;;;7009130;28;20873;-79
2022/07/20 15:25:45;;;;;;;19.35;14.77;;;30.80;86.00;;;;;;7010867;28;20435;-76
2022/07/20 15:29:07;;;;;;;18.27;14.57;;;31.10;86.90;;;;;;6995444;28;20435;-77
2022/07/20 15:32:30;;;;;;;18.00;13.63;;;31.50;85.00;;;;;;6995469;28;20450;-77
2022/07/20 15:35:53;;;;;;;17.90;13.73;;;31.90;82.40;;;;;;7020320;28;20426;-78
2022/07/20 15:39:16;;;;;;;17.63;13.85;;;32.30;76.90;;;;;;7011432;28;20421;-76
2022/07/20 15:42:39;;;;;;;18.97;13.30;;;32.50;76.80;;;;;;7023367;28;20432;-77
2022/07/20 15:46:02;;;;;;;17.63;13.48;;;32.70;72.10;;;;;;7027333;28;20425;-78
2022/07/20 15:49:26;;;;;;;17.90;13.00;;;32.80;73.20;;;;;;7008042;28;20448;-78
2022/07/20 15:52:48;;;;;;;15.85;12.98;;;32.70;72.60;;;;;;7040123;28;20431;-77
2022/07/20 15:56:10;;;;;;;16.98;13.48;;;32.60;71.70;;;;;;7021526;28;20459;-77
2022/07/20 15:59:32;;;;;;;17.93;14.10;;;32.70;73.70;;;;;;6994397;28;20471;-77
2022/07/20 16:02:54;;;;;;;17.95;13.25;;;32.90;73.40;;;;;;7011809;28;20446;-77
2022/07/20 16:06:18;;;;;;;16.40;13.07;;;32.90;75.20;;;;;;7019188;28;20472;-75
2022/07/20 16:09:41;;;;;;;16.65;13.20;;;32.80;73.80;;;;;;7020293;28;20426;-77
2022/07/20 16:13:03;;;;;;;16.55;12.95;;;32.70;73.60;;;;;;7023511;28;20445;-77
2022/07/20 16:16:25;;;;;;;15.75;13.32;;;32.60;72.50;;;;;;7018410;28;20899;-78
2022/07/20 16:19:48;;;;;;;18.05;13.45;;;32.50;72.70;;;;;;7024746;28;20437;-76
2022/07/20 16:23:11;;;;;;;16.92;13.63;;;32.40;74.50;;;;;;7021045;28;20787;-76
2022/07/20 16:26:33;;;;;;;17.73;13.57;;;32.20;74.00;;;;;;7017704;28;20430;-78
2022/07/20 16:29:56;;;;;;;17.17;13.40;;;32.10;74.80;;;;;;7022069;28;20777;-79
2022/07/20 16:33:18;;;;;;;18.63;13.43;;;31.90;74.10;;;;;;7013824;28;20439;-76
2022/07/20 16:36:40;;;;;;;17.50;13.68;;;31.80;74.50;;;;;;7052077;28;20510;-76
2022/07/20 16:40:05;;;;;;;18.17;14.25;;;31.70;74.90;;;;;;7052137;28;20435;-78
2022/07/20 16:43:30;;;;;;;19.05;14.07;;;31.50;74.60;;;;;;7033542;28;20790;-80
2022/07/20 16:46:53;;;;;;;17.80;14.93;;;31.40;75.40;;;;;;7044886;28;20472;-81
2022/07/20 16:50:15;;;;;;;19.37;14.00;;;31.20;74.50;;;;;;7050156;28;20444;-82
2022/07/20 16:53:37;;;;;;;19.17;13.97;;;30.90;75.20;;;;;;7029414;28;20460;-86
2022/07/20 16:57:01;;;;;;;17.15;11.07;;;30.70;76.50;;;;;;7008961;28;20485;-79
2022/07/20 17:00:24;;;;;;;21.73;15.57;;;30.60;75.40;;;;;;7023579;28;20440;-78
2022/07/20 17:03:46;;;;;;;22.85;16.45;;;30.60;79.20;;;;;;7023487;28;20460;-78
2022/07/20 17:07:08;;;;;;;22.80;16.97;;;30.50;87.10;;;;;;7008313;28;20811;-81
2022/07/20 17:10:30;;;;;;;19.77;15.50;;;30.20;91.40;;;;;;7024188;28;20433;-79
2022/07/20 17:13:57;;;;;;;15.83;14.00;;;29.80;90.10;;;;;;7029284;28;20429;-80
2022/07/20 17:17:19;;;;;;;16.65;13.35;;;29.30;88.60;;;;;;7013810;28;20533;-81
2022/07/20 17:20:43;;;;;;;16.55;12.90;;;29.00;88.20;;;;;;7022083;28;20928;-78
2022/07/20 17:24:05;;;;;;;16.50;13.05;;;28.80;85.70;;;;;;7043341;28;20437;-78
2022/07/20 17:27:30;;;;;;;18.73;15.18;;;28.70;88.30;;;;;;7052965;28;20439;-78
2022/07/20 17:30:53;;;;;;;16.13;14.07;;;28.50;91.70;;;;;;7024988;28;20970;-79
2022/07/20 17:34:16;;;;;;;16.85;14.07;;;28.30;91.80;;;;;;7029071;28;20471;-78